Terminal Aerodrome Forecast
Issued by NWS

Home | Current Version | Previous Version | Text Only | Print | Product List | Glossary On
Versions: 1 2 3 4 5 6 7 8 9 10 11 12 13 14 15 16 17 18 19 20 21 22 23 24 25
000
FTUS41 KBTV 071731
TAFPBG
TAF
KPBG 071731Z 0718/0818 14012KT P6SM VCSH SCT050 BKN080
     FM072300 17006KT P6SM FEW060 SCT200
     FM080500 27006KT 5SM -SHRA BR OVC050
     FM080800 31007KT P6SM BKN025 OVC050
     FM081100 01007KT P6SM FEW200=

USA.gov is the U.S. government's official web portal to all federal, state and local government web resources and services.